createdAt,value
2023-02-08T00:01:33.626Z,101607.03
2023-02-08T00:04:02.860Z,101600.91
2023-02-08T00:06:31.322Z,101608.78
2023-02-08T00:09:01.698Z,101602.69
2023-02-08T00:11:30.192Z,101606.16
2023-02-08T00:14:00.228Z,101602.59
2023-02-08T00:16:28.857Z,101607.06
2023-02-08T00:18:57.391Z,101604.44
2023-02-08T00:21:26.246Z,101610.56
2023-02-08T00:23:54.645Z,101599.13
2023-02-08T00:26:23.853Z,101607.09
2023-02-08T00:28:52.328Z,101608.84
2023-02-08T00:31:22.750Z,101617.72
2023-02-08T00:33:51.522Z,101614.22
2023-02-08T00:36:20.679Z,101624.78
2023-02-08T00:38:49.068Z,101630.91
2023-02-08T00:41:18.424Z,101621.19
2023-02-08T00:43:49.207Z,101620.34
2023-02-08T00:46:17.548Z,101629.13
2023-02-08T00:48:47.625Z,101628.19
2023-02-08T00:51:16.020Z,101619.47
2023-02-08T00:53:46.192Z,101618.53
2023-02-08T00:56:15.993Z,101629.97
2023-02-08T00:58:44.714Z,101625.53
2023-02-08T01:01:13.661Z,101629.88
2023-02-08T01:03:43.695Z,101626.41
2023-02-08T01:06:16.994Z,101620.28
2023-02-08T01:08:46.732Z,101630.84
2023-02-08T01:11:21.849Z,101629.94
2023-02-08T01:13:50.358Z,101615.06
2023-02-08T01:16:20.784Z,101623.84
2023-02-08T01:18:51.215Z,101614.13
2023-02-08T01:21:24.742Z,101616.81
2023-02-08T01:23:53.440Z,101617.72
2023-02-08T01:26:25.166Z,101612.38
2023-02-08T01:28:55.022Z,101610.63
2023-02-08T01:31:29.061Z,101613.25
2023-02-08T01:33:59.198Z,101610.56
2023-02-08T01:36:30.660Z,101611.50
2023-02-08T01:38:59.035Z,101614.13
2023-02-08T01:41:29.956Z,101616.81
2023-02-08T01:44:05.109Z,101621.19
2023-02-08T01:46:34.689Z,101606.22
2023-02-08T01:49:08.246Z,101617.72
2023-02-08T01:51:42.177Z,101619.44
2023-02-08T01:54:12.474Z,101612.41
2023-02-08T01:56:45.954Z,101615.06
2023-02-08T01:59:18.752Z,101606.25
2023-02-08T02:01:48.940Z,101603.59
2023-02-08T02:04:17.777Z,101604.47
2023-02-08T02:06:51.853Z,101597.44
2023-02-08T02:09:25.937Z,101599.22
2023-02-08T02:11:56.242Z,101592.19
2023-02-08T02:14:26.673Z,101591.28
2023-02-08T02:16:55.031Z,101583.34
2023-02-08T02:19:32.931Z,101588.66
2023-02-08T02:22:18.965Z,101593.00
2023-02-08T02:25:08.230Z,101593.88
2023-02-08T02:27:54.293Z,101591.28
2023-02-08T02:30:45.535Z,101590.44
2023-02-08T02:33:46.002Z,101589.53
2023-02-08T02:36:25.607Z,101585.06
2023-02-08T02:39:06.422Z,101586.00
2023-02-08T02:42:03.585Z,101589.59
2023-02-08T02:44:42.136Z,101581.63
2023-02-08T02:47:20.350Z,101584.22
2023-02-08T02:49:51.800Z,101588.69
2023-02-08T02:52:33.685Z,101571.09
2023-02-08T02:55:07.499Z,101571.16
2023-02-08T02:57:37.249Z,101575.53
2023-02-08T03:00:09.904Z,101569.34
2023-02-08T03:02:38.565Z,101560.53
2023-02-08T03:05:08.709Z,101568.50
2023-02-08T03:08:14.188Z,101569.38
2023-02-08T03:10:55.241Z,101570.25
2023-02-08T03:13:33.853Z,101577.31
2023-02-08T03:16:15.350Z,101572.06
2023-02-08T03:18:57.687Z,101574.69
2023-02-08T03:21:38.583Z,101572.06
2023-02-08T03:24:22.643Z,101580.00
2023-02-08T03:26:57.182Z,101582.63
2023-02-08T03:29:38.857Z,101578.19
2023-02-08T03:32:11.364Z,101582.69
2023-02-08T03:34:47.262Z,101585.28
2023-02-08T03:37:21.234Z,101575.66
2023-02-08T03:39:57.141Z,101573.84
2023-02-08T03:42:28.923Z,101574.72
2023-02-08T03:45:01.654Z,101584.41
2023-02-08T03:47:35.471Z,101580.00
2023-02-08T03:50:09.526Z,101586.16
2023-02-08T03:52:39.426Z,101581.75
2023-02-08T03:55:14.892Z,101580.81
2023-02-08T03:57:49.255Z,101594.94
2023-02-08T04:00:19.986Z,101589.66
2023-02-08T04:02:55.546Z,101590.56
2023-02-08T04:05:25.678Z,101594.06
2023-02-08T04:07:54.168Z,101589.66
2023-02-08T04:10:24.049Z,101599.34
2023-02-08T04:12:53.298Z,101594.03
2023-02-08T04:15:22.162Z,101589.63
2023-02-08T04:17:50.555Z,101594.94
2023-02-08T04:20:18.941Z,101599.31
2023-02-08T04:22:47.311Z,101603.59
2023-02-08T04:25:16.075Z,101613.31
2023-02-08T04:27:45.858Z,101610.69
2023-02-08T04:30:15.183Z,101614.19
2023-02-08T04:32:43.541Z,101615.09
2023-02-08T04:35:12.000Z,101611.53
2023-02-08T04:37:40.418Z,101619.50
2023-02-08T04:40:09.449Z,101610.66
2023-02-08T04:42:37.793Z,101616.72
2023-02-08T04:45:08.611Z,101622.13
2023-02-08T04:47:37.047Z,101620.38
2023-02-08T04:50:06.164Z,101615.09
2023-02-08T04:52:34.508Z,101608.00
2023-02-08T04:55:02.807Z,101613.34
2023-02-08T04:57:31.479Z,101618.63
2023-02-08T05:00:00.481Z,101634.50
2023-02-08T05:02:30.474Z,101637.22
2023-02-08T05:04:58.830Z,101623.09
2023-02-08T05:07:27.280Z,101633.69
2023-02-08T05:09:55.619Z,101628.41
2023-02-08T05:12:24.135Z,101631.91
2023-02-08T05:14:52.618Z,101634.56
2023-02-08T05:17:20.976Z,101631.94
2023-02-08T05:19:50.893Z,101635.47
2023-02-08T05:22:19.178Z,101627.50
2023-02-08T05:24:47.700Z,101620.50
2023-02-08T05:27:18.013Z,101629.28
2023-02-08T05:29:46.385Z,101631.03
2023-02-08T05:32:14.761Z,101634.50
2023-02-08T05:34:43.184Z,101637.19
2023-02-08T05:37:14.219Z,101639.81
2023-02-08T05:39:42.599Z,101643.31
2023-02-08T05:42:11.048Z,101649.50
2023-02-08T05:44:39.448Z,101644.22
2023-02-08T05:47:08.135Z,101644.19
2023-02-08T05:49:36.520Z,101646.88
2023-02-08T05:52:05.251Z,101654.75
2023-02-08T05:54:35.368Z,101653.00
2023-02-08T05:57:04.040Z,101652.09
2023-02-08T05:59:32.330Z,101650.38
2023-02-08T06:02:00.846Z,101655.63
2023-02-08T06:04:29.258Z,101657.38
2023-02-08T06:06:57.612Z,101658.28
2023-02-08T06:09:25.960Z,101661.78
2023-02-08T06:11:55.655Z,101668.84
2023-02-08T06:14:24.500Z,101675.00
2023-02-08T06:16:52.871Z,101673.22
2023-02-08T06:19:21.343Z,101666.19
2023-02-08T06:21:49.959Z,101674.13
2023-02-08T06:24:18.284Z,101679.41
2023-02-08T06:26:46.613Z,101687.31
2023-02-08T06:29:16.600Z,101688.22
2023-02-08T06:31:44.928Z,101694.34
2023-02-08T06:34:13.940Z,101698.75
2023-02-08T06:36:42.293Z,101700.47
2023-02-08T06:39:10.641Z,101705.78
2023-02-08T06:41:39.126Z,101696.09
2023-02-08T06:44:07.528Z,101696.94
2023-02-08T06:46:37.368Z,101694.31
2023-02-08T06:49:05.938Z,101690.78
2023-02-08T06:51:34.249Z,101696.06
2023-02-08T06:54:02.552Z,101699.59
2023-02-08T06:56:31.027Z,101701.34
2023-02-08T06:58:59.544Z,101698.69
2023-02-08T07:01:27.961Z,101692.53
2023-02-08T07:03:57.823Z,101698.72
2023-02-08T07:06:26.246Z,101691.69
2023-02-08T07:08:54.940Z,101692.53
2023-02-08T07:11:23.613Z,101695.13
2023-02-08T07:13:52.923Z,101688.13
2023-02-08T07:16:21.680Z,101697.78
2023-02-08T07:18:50.082Z,101692.47
2023-02-08T07:21:22.171Z,101690.75
2023-02-08T07:23:50.510Z,101694.22
2023-02-08T07:26:19.668Z,101688.91
2023-02-08T07:28:47.962Z,101696.81
2023-02-08T07:31:18.225Z,101694.22
2023-02-08T07:33:46.599Z,101707.41
2023-02-08T07:36:14.862Z,101706.56
2023-02-08T07:38:45.041Z,101709.13
2023-02-08T07:41:15.387Z,101699.44
2023-02-08T07:43:44.479Z,101704.75
2023-02-08T07:46:15.894Z,101716.19
2023-02-08T07:48:45.348Z,101713.56
2023-02-08T07:51:14.932Z,101710.94
2023-02-08T07:53:44.717Z,101713.53
2023-02-08T07:56:13.277Z,101714.44
2023-02-08T07:58:41.569Z,101712.66
2023-02-08T08:01:21.443Z,101717.03
2023-02-08T08:03:51.537Z,101727.59
2023-02-08T08:06:20.567Z,101721.41
2023-02-08T08:08:50.908Z,101716.94
2023-02-08T08:11:20.929Z,101725.75
2023-02-08T08:13:49.303Z,101726.63
2023-02-08T08:16:18.388Z,101738.94
2023-02-08T08:18:47.391Z,101732.78
2023-02-08T08:21:16.883Z,101729.25
2023-02-08T08:23:45.464Z,101727.47
2023-02-08T08:26:17.488Z,101738.84
2023-02-08T08:28:47.384Z,101740.63
2023-02-08T08:31:17.961Z,101737.16
2023-02-08T08:33:46.974Z,101734.41
2023-02-08T08:36:15.598Z,101726.50
2023-02-08T08:38:44.202Z,101742.41
2023-02-08T08:41:17.461Z,101745.84
2023-02-08T08:43:46.076Z,101737.91
2023-02-08T08:46:16.685Z,101742.31
2023-02-08T08:48:45.541Z,101740.59
2023-02-08T08:51:14.204Z,101738.78
2023-02-08T08:53:42.511Z,101744.91
2023-02-08T08:56:11.013Z,101743.13
2023-02-08T08:58:40.747Z,101743.19
2023-02-08T09:01:09.117Z,101747.59
2023-02-08T09:03:37.633Z,101743.13
2023-02-08T09:06:06.343Z,101753.75
2023-02-08T09:08:34.657Z,101744.94
2023-02-08T09:11:07.359Z,101740.44
2023-02-08T09:13:36.144Z,101735.19
2023-02-08T09:16:12.388Z,101737.78
2023-02-08T09:18:40.898Z,101741.31
2023-02-08T09:21:10.296Z,101745.59
2023-02-08T09:23:39.069Z,101750.94
2023-02-08T09:26:09.197Z,101775.63
2023-02-08T09:28:37.544Z,101753.53
2023-02-08T09:31:11.253Z,101764.16
2023-02-08T09:33:40.013Z,101771.09
2023-02-08T09:36:09.066Z,101770.31
2023-02-08T09:38:37.681Z,101764.03
2023-02-08T09:41:21.337Z,101756.03
2023-02-08T09:44:02.035Z,101759.50
2023-02-08T09:46:35.697Z,101758.53
2023-02-08T09:49:11.972Z,101763.78
2023-02-08T09:51:46.182Z,101762.88
2023-02-08T09:54:19.695Z,101768.09
2023-02-08T09:57:02.991Z,101754.91
2023-02-08T09:59:35.087Z,101757.56
2023-02-08T10:02:18.732Z,101756.63
2023-02-08T10:05:00.993Z,101758.22
2023-02-08T10:07:29.794Z,101747.38
2023-02-08T10:10:01.398Z,101754.47
2023-02-08T10:12:43.404Z,101741.03
2023-02-08T10:15:26.922Z,101742.69
2023-02-08T10:18:24.541Z,101739.13
2023-02-08T10:21:09.014Z,101733.16
2023-02-08T10:23:53.769Z,101738.19
2023-02-08T10:26:33.225Z,101731.19
2023-02-08T10:29:35.097Z,101729.25
2023-02-08T10:32:26.705Z,101721.31
2023-02-08T10:35:01.377Z,101728.81
2023-02-08T10:37:35.012Z,101737.06
2023-02-08T10:40:21.094Z,101734.38
2023-02-08T10:43:00.589Z,101731.28
2023-02-08T10:45:33.489Z,101736.66
2023-02-08T10:48:07.059Z,101723.00
2023-02-08T10:50:40.769Z,101718.72
2023-02-08T10:53:17.105Z,101720.38
2023-02-08T10:55:47.562Z,101711.19
2023-02-08T10:58:18.911Z,101718.56
2023-02-08T11:00:51.954Z,101707.00
2023-02-08T11:03:24.332Z,101710.44
2023-02-08T11:05:54.961Z,101705.13
2023-02-08T11:08:25.224Z,101704.00
2023-02-08T11:11:04.364Z,101702.94
2023-02-08T11:13:37.864Z,101699.63
2023-02-08T11:16:08.698Z,101703.03
2023-02-08T11:18:40.805Z,101706.44
2023-02-08T11:21:23.611Z,101690.97
2023-02-08T11:23:53.972Z,101692.16
2023-02-08T11:26:26.245Z,101698.31
2023-02-08T11:29:02.513Z,101687.59
2023-02-08T11:31:32.357Z,101691.75
2023-02-08T11:34:03.559Z,101685.06
2023-02-08T11:36:36.485Z,101695.31
2023-02-08T11:39:18.652Z,101682.06
2023-02-08T11:41:50.472Z,101680.09
2023-02-08T11:44:24.544Z,101684.94
2023-02-08T11:46:53.889Z,101688.94
2023-02-08T11:49:25.348Z,101683.69
2023-02-08T11:51:55.620Z,101682.63
2023-02-08T11:54:41.392Z,101680.50
2023-02-08T11:57:17.107Z,101676.53
2023-02-08T11:59:45.736Z,101666.31
2023-02-08T12:02:35.803Z,101668.38
2023-02-08T12:05:05.491Z,101660.53
2023-02-08T12:07:48.112Z,101658.09
2023-02-08T12:10:45.678Z,101657.97
2023-02-08T12:13:28.798Z,101652.72
2023-02-08T12:16:10.964Z,101643.19
2023-02-08T12:18:59.281Z,101637.97
2023-02-08T12:21:33.691Z,101641.22
2023-02-08T12:24:08.184Z,101634.59
2023-02-08T12:27:01.993Z,101631.19
2023-02-08T12:29:47.680Z,101637.09
2023-02-08T12:32:51.791Z,101640.13
2023-02-08T12:36:03.272Z,101637.63
2023-02-08T12:39:19.085Z,101630.75
2023-02-08T12:42:05.127Z,101635.38
2023-02-08T12:44:41.792Z,101627.13
2023-02-08T12:47:35.245Z,101630.66
2023-02-08T12:50:15.698Z,101632.31
2023-02-08T12:55:57.565Z,101622.63
2023-02-08T12:58:33.344Z,101621.75
2023-02-08T13:01:10.984Z,101622.88
2023-02-08T13:03:49.373Z,101610.97
2023-02-08T13:06:23.129Z,101608.63
2023-02-08T13:08:56.348Z,101612.78
2023-02-08T13:11:32.694Z,101606.72
2023-02-08T13:14:12.681Z,101601.66
2023-02-08T13:16:48.244Z,101605.44
2023-02-08T13:19:30.883Z,101605.31
2023-02-08T13:22:01.153Z,101597.53
2023-02-08T13:24:37.871Z,101603.78
2023-02-08T13:27:08.245Z,101593.19
2023-02-08T13:29:39.376Z,101594.75
2023-02-08T13:32:15.462Z,101592.31
2023-02-08T13:34:48.262Z,101604.75
2023-02-08T13:37:26.008Z,101603.72
2023-02-08T13:40:03.121Z,101605.41
2023-02-08T13:42:39.746Z,101596.25
2023-02-08T13:45:12.349Z,101594.91
2023-02-08T13:47:48.683Z,101600.16
2023-02-08T13:50:49.079Z,101593.28
2023-02-08T13:53:19.327Z,101587.34
2023-02-08T13:56:08.380Z,101580.53
2023-02-08T13:59:01.170Z,101587.47
2023-02-08T14:01:33.070Z,101587.59
2023-02-08T14:04:34.972Z,101587.28
2023-02-08T14:07:30.416Z,101596.75
2023-02-08T14:10:11.337Z,101589.03
2023-02-08T14:12:50.223Z,101591.94
2023-02-08T14:15:27.383Z,101599.41
2023-02-08T14:18:03.129Z,101596.13
2023-02-08T14:20:36.404Z,101591.78
2023-02-08T14:23:08.205Z,101596.97
2023-02-08T14:25:44.187Z,101596.13
2023-02-08T14:28:33.589Z,101596.22
2023-02-08T14:31:07.189Z,101601.22
2023-02-08T14:33:41.110Z,101590.03
2023-02-08T14:36:25.777Z,101593.38
2023-02-08T14:39:06.966Z,101586.25
2023-02-08T14:41:54.587Z,101586.91
2023-02-08T14:44:51.490Z,101586.44
2023-02-08T14:48:06.393Z,101585.56
2023-02-08T14:51:17.218Z,101576.13
2023-02-08T14:53:49.985Z,101576.91
2023-02-08T14:56:23.253Z,101573.19
2023-02-08T14:58:56.357Z,101573.59
2023-02-08T15:01:35.400Z,101580.31
2023-02-08T15:04:04.955Z,101580.06
2023-02-08T15:07:10.806Z,101577.66
2023-02-08T15:09:41.930Z,101576.03
2023-02-08T15:12:18.932Z,101571.91
2023-02-08T15:14:47.970Z,101569.22
2023-02-08T15:17:34.884Z,101573.78
2023-02-08T15:20:06.374Z,101562.53
2023-02-08T15:22:38.382Z,101569.63
2023-02-08T15:25:23.440Z,101572.63
2023-02-08T15:27:56.249Z,101570.94
2023-02-08T15:30:28.720Z,101569.97
2023-02-08T15:32:58.941Z,101566.69
2023-02-08T15:35:28.758Z,101570.31
2023-02-08T15:37:59.183Z,101574.94
2023-02-08T15:40:29.530Z,101570.66
2023-02-08T15:43:05.111Z,101575.22
2023-02-08T15:45:33.675Z,101577.81
2023-02-08T15:48:03.693Z,101572.84
2023-02-08T15:50:33.454Z,101571.13
2023-02-08T15:53:05.641Z,101576.59
2023-02-08T15:55:41.562Z,101580.13
2023-02-08T15:58:19.263Z,101583.91
2023-02-08T16:00:48.222Z,101584.78
2023-02-08T16:03:23.742Z,101590.94
2023-02-08T16:05:55.466Z,101589.22
2023-02-08T16:08:28.280Z,101588.59
2023-02-08T16:11:01.953Z,101588.66
2023-02-08T16:13:33.188Z,101589.78
2023-02-08T16:16:18.414Z,101591.47
2023-02-08T16:18:50.296Z,101592.41
2023-02-08T16:21:28.637Z,101595.91
2023-02-08T16:24:01.230Z,101594.31
2023-02-08T16:26:35.640Z,101600.47
2023-02-08T16:29:07.496Z,101602.31
2023-02-08T16:31:37.356Z,101598.84
2023-02-08T16:34:08.932Z,101597.13
2023-02-08T16:36:41.573Z,101600.72
2023-02-08T16:39:31.321Z,101600.72
2023-02-08T16:42:14.544Z,101600.03
2023-02-08T16:45:01.352Z,101595.66
2023-02-08T16:47:37.943Z,101595.63
2023-02-08T16:50:07.332Z,101590.41
2023-02-08T16:52:36.622Z,101587.78
2023-02-08T16:55:08.353Z,101590.50
2023-02-08T16:57:45.180Z,101587.09
2023-02-08T17:00:21.644Z,101580.03
2023-02-08T17:02:50.429Z,101586.25
2023-02-08T17:05:21.038Z,101586.31
2023-02-08T17:07:53.490Z,101588.97
2023-02-08T17:10:29.032Z,101581.88
2023-02-08T17:13:13.476Z,101592.50
2023-02-08T17:15:48.147Z,101586.31
2023-02-08T17:18:16.783Z,101588.13
2023-02-08T17:20:45.630Z,101584.63
2023-02-08T17:23:15.820Z,101589.84
2023-02-08T17:25:46.286Z,101589.94
2023-02-08T17:28:19.283Z,101583.69
2023-02-08T17:30:49.508Z,101578.47
2023-02-08T17:33:21.175Z,101581.13
2023-02-08T17:35:51.261Z,101595.25
2023-02-08T17:38:20.498Z,101588.31
2023-02-08T17:40:50.604Z,101588.38
2023-02-08T17:43:19.124Z,101590.16
2023-02-08T17:45:48.053Z,101587.59
2023-02-08T17:48:17.146Z,101589.31
2023-02-08T17:50:51.096Z,101589.25
2023-02-08T17:53:20.879Z,101583.16
2023-02-08T17:55:51.372Z,101584.06
2023-02-08T17:58:20.183Z,101586.72
2023-02-08T18:00:53.951Z,101582.22
2023-02-08T18:03:22.851Z,101589.34
2023-02-08T18:05:57.324Z,101591.19
2023-02-08T18:08:28.840Z,101582.34
2023-02-08T18:11:04.817Z,101596.44
2023-02-08T18:13:39.718Z,101597.41
2023-02-08T18:16:10.127Z,101603.59
2023-02-08T18:18:39.693Z,101596.53
2023-02-08T18:21:13.863Z,101600.06
2023-02-08T18:23:43.389Z,101596.59
2023-02-08T18:26:16.078Z,101602.81
2023-02-08T18:28:45.291Z,101594.88
2023-02-08T18:31:16.193Z,101598.41
2023-02-08T18:33:45.604Z,101594.03
2023-02-08T18:36:15.799Z,101587.84
2023-02-08T18:38:45.792Z,101588.81
2023-02-08T18:41:18.471Z,101582.69
2023-02-08T18:43:47.173Z,101572.97
2023-02-08T18:46:18.087Z,101570.28
2023-02-08T18:48:47.289Z,101564.16
2023-02-08T18:51:22.733Z,101578.34
2023-02-08T18:53:53.796Z,101575.66
2023-02-08T18:56:26.699Z,101582.75
2023-02-08T18:58:56.893Z,101582.72
2023-02-08T19:01:26.303Z,101573.97
2023-02-08T19:03:55.317Z,101569.56
2023-02-08T19:06:25.616Z,101580.16
2023-02-08T19:08:55.836Z,101574.00
2023-02-08T19:11:28.116Z,101573.19
2023-02-08T19:13:59.317Z,101576.69
2023-02-08T19:16:28.872Z,101567.94
2023-02-08T19:18:57.708Z,101567.91
2023-02-08T19:21:26.438Z,101561.75
2023-02-08T19:23:58.224Z,101555.63
2023-02-08T19:26:30.017Z,101551.19
2023-02-08T19:29:03.171Z,101548.59
2023-02-08T19:31:33.303Z,101529.22
2023-02-08T19:34:03.319Z,101519.53
2023-02-08T19:36:33.803Z,101532.72
2023-02-08T19:39:03.492Z,101528.31
2023-02-08T19:41:37.681Z,101534.50
2023-02-08T19:44:08.370Z,101535.38
2023-02-08T19:46:39.291Z,101539.81
2023-02-08T19:49:08.816Z,101542.44
2023-02-08T19:51:38.472Z,101537.16
2023-02-08T19:54:10.318Z,101538.94
2023-02-08T19:56:40.628Z,101534.53
2023-02-08T19:59:19.690Z,101537.19
2023-02-08T20:01:51.425Z,101535.47
2023-02-08T20:04:20.151Z,101528.47
2023-02-08T20:06:52.883Z,101540.78
2023-02-08T20:09:22.131Z,101539.97
2023-02-08T20:12:00.084Z,101539.97
2023-02-08T20:14:34.781Z,101539.13
2023-02-08T20:17:04.340Z,101542.66
2023-02-08T20:19:33.392Z,101553.22
2023-02-08T20:22:02.156Z,101547.97
2023-02-08T20:24:30.969Z,101543.56
2023-02-08T20:27:05.820Z,101547.06
2023-02-08T20:29:34.614Z,101536.56
2023-02-08T20:32:03.439Z,101536.53
2023-02-08T20:34:35.080Z,101540.97
2023-02-08T20:37:07.641Z,101540.97
2023-02-08T20:39:39.476Z,101541.88
2023-02-08T20:42:18.130Z,101541.00
2023-02-08T20:44:47.249Z,101543.63
2023-02-08T20:47:19.467Z,101538.41
2023-02-08T20:49:50.172Z,101540.16
2023-02-08T20:52:20.294Z,101529.63
2023-02-08T20:54:52.224Z,101530.50
2023-02-08T20:57:22.354Z,101520.84
2023-02-08T20:59:52.546Z,101514.69
2023-02-08T21:02:24.288Z,101517.34
2023-02-08T21:04:53.049Z,101512.06
2023-02-08T21:07:21.679Z,101519.97
2023-02-08T21:09:50.391Z,101515.59
2023-02-08T21:12:19.091Z,101516.47
2023-02-08T21:14:49.668Z,101520.88
2023-02-08T21:17:18.774Z,101521.75
2023-02-08T21:19:47.811Z,101522.63
2023-02-08T21:22:17.221Z,101522.63
2023-02-08T21:24:45.768Z,101520.00
2023-02-08T21:27:14.384Z,101513.88
2023-02-08T21:29:43.036Z,101520.88
2023-02-08T21:32:12.984Z,101515.63
2023-02-08T21:34:41.626Z,101510.34
2023-02-08T21:42:15.123Z,101500.69
2023-02-08T21:44:44.134Z,101497.19
2023-02-08T21:47:14.195Z,101506.84
2023-02-08T21:50:00.096Z,101505.97
2023-02-08T21:52:46.312Z,101499.81
2023-02-08T22:01:14.897Z,101505.13
2023-02-08T22:04:29.756Z,101499.84
2023-02-08T22:07:19.236Z,101499.81
2023-02-08T22:09:48.157Z,101496.34
2023-02-08T22:12:18.888Z,101496.34
2023-02-08T22:14:47.988Z,101486.66
2023-02-08T22:17:17.386Z,101486.69
2023-02-08T22:19:47.894Z,101484.06
2023-02-08T22:22:16.363Z,101486.66
2023-02-08T22:24:44.856Z,101480.50
2023-02-08T22:27:18.450Z,101473.53
2023-02-08T22:29:52.776Z,101472.63
2023-02-08T22:32:21.589Z,101475.28
2023-02-08T22:34:51.493Z,101461.25
2023-02-08T22:37:20.001Z,101464.75
2023-02-08T22:39:48.520Z,101456.84
2023-02-08T22:42:17.074Z,101455.97
2023-02-08T22:44:46.229Z,101449.84
2023-02-08T22:47:15.203Z,101447.22
2023-02-08T22:49:43.777Z,101449.84
2023-02-08T22:52:14.452Z,101441.06
2023-02-08T22:54:43.016Z,101434.06
2023-02-08T22:57:12.068Z,101443.69
2023-02-08T22:59:41.387Z,101423.53
2023-02-08T23:02:09.969Z,101436.69
2023-02-08T23:04:38.750Z,101424.41
2023-02-08T23:07:07.189Z,101419.13
2023-02-08T23:09:37.002Z,101409.50
2023-02-08T23:12:05.560Z,101410.38
2023-02-08T23:14:34.216Z,101405.09
2023-02-08T23:17:02.984Z,101408.59
2023-02-08T23:19:31.719Z,101405.09
2023-02-08T23:22:00.645Z,101407.72
2023-02-08T23:24:29.120Z,101405.97
2023-02-08T23:26:59.041Z,101403.34
2023-02-08T23:29:27.708Z,101403.34
2023-02-08T23:31:56.152Z,101397.22
2023-02-08T23:34:24.813Z,101394.56
2023-02-08T23:36:53.224Z,101389.31
2023-02-08T23:39:22.136Z,101374.41
2023-02-08T23:41:50.545Z,101377.91
2023-02-08T23:44:20.802Z,101375.28
2023-02-08T23:46:49.208Z,101369.13
2023-02-08T23:49:17.659Z,101356.84
2023-02-08T23:51:46.023Z,101365.59
2023-02-08T23:54:14.470Z,101376.97
2023-02-08T23:56:42.922Z,101365.56
2023-02-08T23:59:12.050Z,101368.16
